Latest Coastal Weather Observations for Cape Borda

IDS60701

Issued at 10:41 am CDT Friday 6 March 2015 (issued every 10 minutes, with the page automatically refreshed every 10 minutes)

About coastal observations | Map of coastal stations | Coastal observations for SA | Marine services | Other Formats
Station Details ID: 022823 Name: CAPE BORDA Lat: -35.75 Lon: 136.60 Height: 158.0 m
Data from the previous 72 hours. | See also: Recent months at Cape Borda
Date/Time
CDT
Temp

°C
Wind Pressure Rain
since 9am
mm
Weather Cloud Vis
km
Sea
Height
m
Swell
Dir
 
Speed
knots
Gust
knots
hPa Trend Height
m
Period
s
Dir
06/10:30am 16.7 SSW 12 16 1020.1 - 0.0 - - - - - - -
06/10:00am 16.5 SSW 13 19 1020.2 - 0.0 - - - - - - -
06/09:30am 16.2 SSW 12 18 1020.0 - 0.0 - - - - - - -
06/09:00am 15.6 SSW 11 17 1019.8 F 0.0 Haze Cloudy 15 1 6.5 8 SW
06/08:30am 15.4 SW 13 18 1019.9 - 0.0 - - - - - - -
06/08:00am 15.2 SW 13 19 1019.7 - 0.0 - - - - - - -
06/07:30am 15.0 SW 12 18 1019.4 - 0.0 - - - - - - -
06/07:00am 14.9 SW 14 18 1019.3 - 0.0 - - - - - - -
06/06:30am 14.8 SW 15 20 1019.1 - 0.0 - - - - - - -
06/06:00am 14.8 SW 14 21 1019.1 - 0.0 - - - - - - -
06/05:30am 14.5 SW 14 21 1019.3 - 0.0 - - - - - - -
06/05:00am 14.5 SW 14 19 1019.4 - 0.0 - - - - - - -
06/04:30am 14.4 SW 13 20 1019.6 - 0.0 - - - - - - -
06/04:00am 14.2 SW 13 19 1019.7 - 0.0 - - - - - - -
06/03:30am 14.2 SW 13 19 1020.0 - 0.0 - - - - - - -
06/03:00am 14.1 SW 13 17 1020.0 - 0.0 - - - - - - -
06/02:30am 13.9 SW 12 18 1020.6 - 0.0 - - - - - - -
06/02:00am 13.9 SW 13 20 1021.2 - 0.0 - - - - - - -
06/01:30am 13.8 SW 13 18 1021.6 - 0.0 - - - - - - -
06/01:00am 14.1 SW 15 20 1021.9 - 0.0 - - - - - - -
06/12:30am 13.8 SW 13 20 1021.9 - 0.0 - - - - - - -
06/12:00am 13.7 SW 13 19 1022.0 - 0.0 - - - - - - -
 
Date/Time
CDT
Temp

°C
Wind Pressure Rain
since 9am
mm
Weather Cloud Vis
km
Sea
Height
m
Swell
Dir
 
Speed
knots
Gust
knots
hPa Trend Height
m
Period
s
Dir
05/11:30pm 14.1 SW 12 16 1022.5 - 0.0 - - - - - - -
05/11:00pm 13.9 SW 13 17 1022.7 - 0.0 - - - - - - -
05/10:30pm 13.7 SW 13 19 1022.9 - 0.0 - - - - - - -
05/10:00pm 13.7 SW 12 16 1023.2 - 0.0 - - - - - - -
05/09:30pm 13.5 SW 11 18 1023.1 - 0.0 - - - - - - -
05/09:00pm 13.4 SSW 11 16 1022.8 - 0.0 - - - - - - -
05/08:30pm 13.6 SSW 11 15 1022.6 - 0.0 - - - - - - -
05/08:00pm 14.3 SSW 12 18 1022.7 - 0.0 - - - - - - -
05/07:30pm 14.4 SSW 11 20 1022.9 - 0.0 - - - - - - -
05/07:00pm 14.8 SW 13 17 1022.8 - 0.0 - - - - - - -
05/06:30pm 15.4 SSW 14 20 1022.7 - 0.0 - - - - - - -
05/06:00pm 16.3 SW 13 19 1022.4 - 0.0 - - - - - - -
05/05:30pm 16.4 SW 15 20 1022.6 - 0.0 - - - - - - -
05/05:00pm 17.4 SW 16 22 1022.4 - 0.0 - - - - - - -
05/04:30pm 17.1 SW 16 21 1022.5 - 0.0 - - - - - - -
05/04:00pm 17.7 SW 17 23 1022.8 - 0.0 - - - - - - -
05/03:30pm 17.5 SW 15 19 1022.8 - 0.0 - - - - - - -
05/03:00pm 18.2 SW 17 24 1022.9 R 0.0 Fine - 12 <0.5 8.0 9 SW
05/02:30pm 17.8 SW 16 23 1023.2 - 0.0 - - - - - - -
05/02:00pm 17.5 SW 18 24 1023.4 - 0.0 - - - - - - -
05/01:30pm 18.4 SW 15 23 1023.5 - 0.0 - - - - - - -
05/01:00pm 18.9 S 10 17 1023.7 - 0.0 - - - - - - -
05/12:30pm 17.5 S 10 15 1024.1 - 0.0 - - - - - - -
05/12:00pm 17.1 SE 11 17 1024.2 - 0.0 - - - - - - -
05/11:30am 17.2 S 12 20 1024.8 - 0.0 - - - - - - -
05/11:00am 16.4 S 11 20 1024.8 - 0.0 - - - - - - -
05/10:30am 16.5 SSE 11 14 1024.5 - 0.0 - - - - - - -
05/10:00am 15.8 SSE 15 19 1024.4 - 0.0 - - - - - - -
05/09:30am 16.0 S 13 19 1024.1 - 0.0 - - - - - - -
05/09:00am 13.9 SSW 11 15 1023.7 R 0.8 Fine Mostly cloudy 6 1 8.0 9 SW
05/08:30am 14.0 S 10 16 1023.6 - 0.8 - - - - - - -
05/08:00am 13.5 S 8 12 1023.0 - 0.8 - - - - - - -
05/07:30am 12.9 S 11 15 1022.8 - 0.8 - - - - - - -
05/07:00am 11.6 S 7 9 1022.3 - 0.8 - - - - - - -
05/06:30am 12.6 S 10 16 1022.2 - 0.8 - - - - - - -
05/06:00am 13.4 S 13 19 1021.9 - 0.8 - - - - - - -
05/05:30am 13.8 S 11 17 1021.2 - 0.8 - - - - - - -
05/05:00am 13.6 S 10 14 1021.0 - 0.8 - - - - - - -
05/04:30am 13.6 SSW 12 17 1021.1 - 0.8 - - - - - - -
05/04:00am 14.3 S 12 18 1020.9 - 0.8 - - - - - - -
05/03:30am 13.6 S 11 17 1020.9 - 0.8 - - - - - - -
05/03:00am 14.4 SSW 17 25 1020.6 - 0.8 - - - - - - -
05/02:30am 14.6 S 16 24 1020.6 - 0.8 - - - - - - -
05/02:00am 14.7 S 16 23 1020.6 - 0.8 - - - - - - -
05/01:32am 14.8 SSW 16 26 1020.5 - 0.8 - - - - - - -
05/01:30am 14.8 SSW 17 26 1020.6 - 0.8 - - - - - - -
05/01:00am 14.9 SSW 18 31 1020.5 - 0.8 - - - - - - -
05/12:55am 15.2 SSW 19 31 1020.2 - 0.8 - - - - - - -
05/12:30am 15.8 SSW 18 26 1020.0 - 0.8 - - - - - - -
05/12:00am 15.8 SSW 19 27 1019.5 - 0.8 - - - - - - -
 
Date/Time
CDT
Temp

°C
Wind Pressure Rain
since 9am
mm
Weather Cloud Vis
km
Sea
Height
m
Swell
Dir
 
Speed
knots
Gust
knots
hPa Trend Height
m
Period
s
Dir
04/11:30pm 16.0 SW 19 27 1019.6 - 0.8 - - - - - - -
04/11:07pm 15.8 SW 16 28 1019.4 - 0.8 - - - - - - -
04/11:00pm 15.5 SW 16 25 1019.4 - 0.8 - - - - - - -
04/10:30pm 15.9 SW 17 22 1019.3 - 0.8 - - - - - - -
04/10:00pm 15.9 SW 17 24 1019.2 - 0.8 - - - - - - -
04/09:30pm 15.9 WSW 13 22 1018.7 - 0.4 - - - - - - -
04/09:00pm 15.2 WSW 11 15 1018.0 - 0.4 - - - - - - -
04/08:34pm 15.5 WSW 18 28 1018.2 - 0.2 - - - - - - -
04/08:30pm 16.7 WSW 17 25 1018.2 - 0.2 - - - - - - -
04/08:00pm 16.8 WSW 15 25 1018.0 - 0.2 - - - - - - -
04/07:30pm 17.1 WSW 18 25 1017.7 - 0.2 - - - - - - -
04/07:00pm 16.8 WSW 18 26 1017.6 - 0.2 - - - - - - -
04/06:30pm 16.5 WSW 15 23 1017.7 - 0.2 - - - - - - -
04/06:00pm 17.3 W 15 21 1017.3 - 0.0 - - - - - - -
04/05:30pm 17.6 W 14 20 1017.5 - 0.0 - - - - - - -
04/05:00pm 18.2 W 15 22 1017.4 - 0.0 - - - - - - -
04/04:30pm 18.2 W 14 19 1017.6 - 0.0 - - - - - - -
04/04:00pm 19.5 W 14 20 1017.7 - 0.0 - - - - - - -
04/03:30pm 18.7 W 15 22 1018.0 - 0.0 - - - - - - -
04/03:00pm 19.9 W 12 18 1018.0 F 0.0 Fine Mostly cloudy 18 <0.5 4.9 9 SW
04/02:30pm 18.7 WSW 14 21 1018.3 - 0.0 - - - - - - -
04/02:00pm 19.0 W 12 16 1018.5 - 0.0 - - - - - - -
04/01:30pm 18.0 W 12 16 1018.9 - 0.0 - - - - - - -
04/01:00pm 17.6 WSW 11 15 1019.1 - 0.0 - - - - - - -
04/12:30pm 17.7 W 13 17 1019.3 - 0.0 - - - - - - -
04/12:00pm 18.4 W 11 15 1019.4 - 0.0 - - - - - - -
04/11:30am 17.8 W 11 15 1019.7 - 0.0 - - - - - - -
04/11:00am 17.4 W 13 18 1019.5 - 0.0 - - - - - - -
04/10:30am 17.6 W 10 14 1019.3 - 0.0 - - - - - - -
04/10:00am 17.1 WSW 12 17 1019.2 - 0.0 - - - - - - -
04/09:30am 17.0 W 11 15 1019.1 - 0.0 - - - - - - -
04/09:00am 16.9 WSW 11 15 1018.8 F 0.0 Fine Cloudy 20 <0.5 6.1 9 S
04/08:30am 16.6 W 10 16 1018.9 - 0.0 - - - - - - -
04/08:00am 16.2 WSW 11 17 1018.7 - 0.0 - - - - - - -
04/07:30am 16.0 SW 11 15 1018.4 - 0.0 - - - - - - -
04/07:00am 15.6 WSW 9 13 1018.2 - 0.0 - - - - - - -
04/06:30am 15.6 WSW 10 16 1018.0 - 0.0 - - - - - - -
04/06:00am 15.4 WSW 10 15 1017.9 - 0.0 - - - - - - -
04/05:30am 15.2 SW 10 15 1018.0 - 0.0 - - - - - - -
04/05:00am 14.9 SW 9 13 1017.9 - 0.0 - - - - - - -
04/04:30am 15.0 SW 11 17 1018.0 - 0.0 - - - - - - -
04/04:00am 15.0 SW 12 16 1017.9 - 0.0 - - - - - - -
04/03:30am 15.7 SW 11 15 1018.0 - 0.0 - - - - - - -
04/03:00am 15.0 SW 11 16 1018.3 - 0.0 - - - - - - -
04/02:30am 15.3 WSW 11 13 1018.9 - 0.0 - - - - - - -
04/02:00am 15.2 SW 11 14 1019.3 - 0.0 - - - - - - -
04/01:30am 14.9 SW 10 14 1019.4 - 0.0 - - - - - - -
04/01:00am 14.7 SW 10 17 1019.5 - 0.0 - - - - - - -
04/12:30am 14.6 SSW 11 15 1019.6 - 0.0 - - - - - - -
04/12:00am 13.7 SSW 9 12 1019.7 - 0.0 - - - - - - -
 
Date/Time
CDT
Temp

°C
Wind Pressure Rain
since 9am
mm
Weather Cloud Vis
km
Sea
Height
m
Swell
Dir
 
Speed
knots
Gust
knots
hPa Trend Height
m
Period
s
Dir
03/11:30pm 14.0 SSW 11 15 1020.2 - 0.0 - - - - - - -
03/11:00pm 13.9 S 10 13 1020.3 - 0.0 - - - - - - -
03/10:30pm 14.3 S 11 14 1020.2 - 0.0 - - - - - - -
03/10:00pm 13.8 S 11 14 1019.9 - 0.0 - - - - - - -
03/09:30pm 13.9 S 13 17 1019.6 - 0.0 - - - - - - -
03/09:00pm 14.3 S 10 13 1019.1 - 0.0 - - - - - - -
03/08:30pm 14.8 S 9 11 1019.4 - 0.0 - - - - - - -
03/08:00pm 15.6 S 10 12 1019.0 - 0.0 - - - - - - -
03/07:30pm 17.1 S 12 15 1018.6 - 0.0 - - - - - - -
03/07:00pm 18.0 S 13 18 1018.4 - 0.0 - - - - - - -
03/06:30pm 19.0 SSW 14 19 1018.4 - 0.0 - - - - - - -
03/06:00pm 19.1 SW 15 19 1018.0 - 0.0 - - - - - - -
03/05:30pm 20.4 SW 14 19 1018.2 - 0.0 - - - - - - -
03/05:00pm 19.9 SW 15 21 1018.0 - 0.0 - - - - - - -
03/04:30pm 19.9 SW 16 20 1018.0 - 0.0 - - - - - - -
03/04:00pm 20.3 SW 15 19 1018.0 - 0.0 - - - - - - -
03/03:30pm 21.1 SSW 16 21 1018.1 - 0.0 - - - - - - -
03/03:00pm 21.2 SW 15 21 1018.0 F 0.0 Fine Partly cloudy 25 1 4.3 8 SW
03/02:30pm 21.0 SW 15 22 1018.3 - 0.0 - - - - - - -
03/02:00pm 21.1 S 9 16 1018.8 - 0.0 - - - - - - -
03/01:30pm 20.0 S 11 17 1018.9 - 0.0 - - - - - - -
03/01:00pm 20.1 S 11 16 1019.2 - 0.0 - - - - - - -
03/12:30pm 20.7 SSW 12 16 1019.5 - 0.0 - - - - - - -
03/12:00pm 21.7 S 10 15 1019.6 - 0.0 - - - - - - -
03/11:30am 19.1 S 10 15 1020.2 - 0.0 - - - - - - -
03/11:00am 18.5 S 8 13 1020.4 - 0.0 - - - - - - -

Other Formats:

Comma delimited format used in spreadsheet applications
http://www.bom.gov.au/fwo/IDS60701/IDS60701.95805.axf

JavaScript Object Notation format (JSON) in row-major order
http://www.bom.gov.au/fwo/IDS60701/IDS60701.95805.json